• Join FlightAware (Why Join?)
  • Login
  • US Flag 
03:43AM EDT


 

Airport Tracker/Info


-or-


 

Live Flight TrackerFlight Track Log ✈ JZA8618 ✈ 15-Jul-2013 ✈ KATL - CYYZ

Flight Track Log - Related Links

Times and Time Zones

All times are in EDT time to prevent confusion due to time zone crossing. See the JZA8618 flight status page for this flight to view local times or setup timezone preferences in your user account.

Time Position Orientation Groundspeed Altitude Reporting Facility
EDT Latitude Longitude Course Direction KTS MPH feet Rate Location/Type
06:42AM 33.6500 -84.3667 North 166 191 3,300  Level Atlanta TRACON
06:43AM 33.6833 -84.3167 51° Northeast 230 265 4,900 2,220 Climbing Atlanta TRACON
06:44AM 33.7333 -84.2667 40° Northeast 288 331 7,800 2,520 Climbing Atlanta TRACON
06:45AM 33.9223 -84.2556 320° Northwest  Level FlightAware Approximate
06:46AM 34.0388 -84.2667 North  Level FlightAware Approximate
06:46AM 33.9089 -84.2692 359° North 301 346 12,800  Level Atlanta Center
06:47AM 34.1587 -84.2667 North  Level FlightAware Approximate
06:47AM 33.9881 -84.2717 359° North 314 361 14,400  Level Atlanta Center
06:48AM 34.2786 -84.2667 North  Level FlightAware Approximate
06:48AM 34.0758 -84.2769 357° North 309 356 16,400  Level Atlanta Center
06:49AM 34.1864 -84.2775 360° North 333 383 18,000 1,380 Climbing Atlanta Center
06:50AM 34.2700 -84.2800 359° North 340 391 19,200 1,380 Climbing Atlanta Center
06:51AM 34.3658 -84.2628 North 346 398 20,800 1,440 Climbing Atlanta Center
06:52AM 34.4619 -84.2428 10° North 351 404 22,100 1,200 Climbing Atlanta Center
06:53AM 34.5581 -84.2178 12° North 351 404 23,300 1,200 Climbing Atlanta Center
06:54AM 34.6583 -84.1953 10° North 358 412 24,500 1,140 Climbing Atlanta Center
06:55AM 34.7647 -84.1728 10° North 352 405 25,600 1,020 Climbing Atlanta Center
06:56AM 34.8647 -84.1475 12° North 352 405 26,600 960 Climbing Atlanta Center
06:57AM 34.9650 -84.1225 12° North 358 412 27,600 900 Climbing Atlanta Center
06:58AM 35.0672 -84.0997 10° North 363 418 28,400 720 Climbing Atlanta Center
06:59AM 35.1694 -84.0744 11° North 368 423 29,100 600 Climbing Atlanta Center
07:00AM 35.2758 -84.0489 11° North 373 429 29,700 540 Climbing Atlanta Center
07:01AM 35.3803 -84.0233 11° North 373 429 30,200 600 Climbing Atlanta Center
07:02AM 35.4889 -83.9953 12° North 378 435 31,000 660 Climbing Atlanta Center
07:03AM 35.5972 -83.9697 11° North 389 448 31,600 660 Climbing Atlanta Center
07:04AM 35.7036 -83.9442 11° North 389 448 32,400 660 Climbing Atlanta Center
07:05AM 35.8100 -83.9158 12° North 389 448 33,000 300 Climbing Atlanta Center
07:06AM 35.9206 -83.8850 13° North 395 455 33,000  Level Atlanta Center
07:09AM 36.1403 -83.7439 27° Northeast 411 473 33,000  Level Indianapolis Center
07:10AM 36.2464 -83.6783 26° Northeast 424 488 33,000  Level Indianapolis Center
07:11AM 36.3511 -83.6106 28° Northeast 426 490 33,000  Level Indianapolis Center
07:12AM 36.4586 -83.5422 27° Northeast 432 497 33,000  Level Indianapolis Center
07:13AM 36.5800 -83.4664 27° Northeast 436 502 33,000  Level Indianapolis Center
07:14AM 36.6864 -83.3972 28° Northeast 431 496 33,000  Level Indianapolis Center
07:15AM 36.7950 -83.3267 27° Northeast 438 504 33,000  Level Indianapolis Center
07:16AM 36.9042 -83.2575 27° Northeast 437 503 33,000  Level Indianapolis Center
07:17AM 37.0139 -83.1861 27° Northeast 436 502 33,000  Level Indianapolis Center
07:18AM 37.1242 -83.1136 28° Northeast 443 510 33,000  Level Indianapolis Center
07:19AM 37.2317 -83.0419 28° Northeast 434 499 33,000  Level Indianapolis Center
07:20AM 37.3411 -82.9708 27° Northeast 438 504 33,000  Level Indianapolis Center
07:21AM 37.4475 -82.9003 28° Northeast 432 497 33,000  Level Indianapolis Center
07:22AM 37.5544 -82.8297 28° Northeast 431 496 33,000  Level Indianapolis Center
07:23AM 37.6803 -82.7458 28° Northeast 435 501 33,000  Level Indianapolis Center
07:24AM 37.7861 -82.6739 28° Northeast 429 494 33,000  Level Indianapolis Center
07:25AM 37.8922 -82.6019 28° Northeast 431 496 33,000  Level Indianapolis Center
07:26AM 37.9986 -82.5308 28° Northeast 431 496 33,000  Level Indianapolis Center
07:27AM 38.1050 -82.4594 28° Northeast 431 496 33,000  Level Indianapolis Center
07:28AM 38.2136 -82.3850 28° Northeast 431 496 33,000  Level Indianapolis Center
07:29AM 38.3192 -82.3142 28° Northeast 428 493 33,000  Level Indianapolis Center
07:30AM 38.4258 -82.2408 28° Northeast 432 497 33,000  Level Indianapolis Center
07:31AM 38.5314 -82.1692 28° Northeast 428 493 33,000  Level Indianapolis Center
07:32AM 38.6381 -82.0964 28° Northeast 431 496 33,000  Level Indianapolis Center
07:33AM 38.7456 -82.0233 28° Northeast 432 497 33,000  Level Indianapolis Center
07:34AM 38.8531 -81.9497 28° Northeast 432 497 33,000  Level Indianapolis Center
07:35AM 38.9594 -81.8750 29° Northeast 432 497 33,000  Level Indianapolis Center
07:36AM 39.0664 -81.8000 29° Northeast 433 498 33,000  Level Indianapolis Center
07:37AM 39.1739 -81.7264 28° Northeast 434 499 33,000  Level Indianapolis Center
07:38AM 39.2808 -81.6492 29° Northeast 437 503 33,000  Level Indianapolis Center
07:39AM 39.4092 -81.5589 29° Northeast 435 501 33,000  Level Indianapolis Center
07:40AM 39.5161 -81.4844 28° Northeast 436 502 33,000  Level Indianapolis Center
07:41AM 39.6236 -81.4072 29° Northeast 438 504 33,000  Level Indianapolis Center
07:42AM 39.7306 -81.3328 28° Northeast 438 504 33,000  Level Indianapolis Center
07:43AM 39.8375 -81.2550 29° Northeast 439 505 33,000  Level Indianapolis Center
07:44AM 39.9450 -81.1778 29° Northeast 440 506 33,000  Level Indianapolis Center
07:45AM 40.0511 -81.1008 29° Northeast 441 507 33,000  Level Indianapolis Center
07:46AM 40.1592 -81.0256 28° Northeast 438 504 33,000  Level Indianapolis Center
07:47AM 40.2292 -80.9772 28° Northeast 438 504 33,000  Level Cleveland Center
07:48AM 40.3356 -80.8992 29° Northeast 438 504 33,000  Level Cleveland Center
07:49AM 40.4400 -80.8231 29° Northeast 438 504 33,000  Level Cleveland Center
07:50AM 40.5464 -80.7444 29° Northeast 438 504 33,000  Level Cleveland Center
07:51AM 40.6592 -80.6597 30° Northeast 432 497 33,000  Level Cleveland Center
07:52AM 40.7675 -80.5831 28° Northeast 432 497 33,000  Level Cleveland Center
07:53AM 40.8758 -80.5033 29° Northeast 440 506 33,000  Level Cleveland Center
07:54AM 40.9842 -80.4236 29° Northeast 440 506 33,000  Level Cleveland Center
07:55AM 41.0906 -80.3433 30° Northeast 440 506 33,000  Level Cleveland Center
07:56AM 41.1986 -80.2631 29° Northeast 440 506 33,000  Level Cleveland Center
07:57AM 41.3028 -80.1878 28° Northeast 440 506 33,000  Level Cleveland Center
07:58AM 41.4086 -80.1042 31° Northeast 440 506 33,000  Level Cleveland Center
07:59AM 41.5167 -80.0231 29° Northeast 440 506 33,000 -300 Level Cleveland Center
08:00AM 41.6247 -79.9442 29° Northeast 440 506 32,500 -1,320 Descending Cleveland Center
08:01AM 41.7242 -79.8653 31° Northeast 448 516 30,400 -2,160 Descending Cleveland Center
08:02AM 41.8364 -79.7806 29° Northeast 453 521 28,200 -2,160 Descending Cleveland Center
08:03AM 41.9544 -79.6897 30° Northeast 448 516 26,100 -2,100 Descending Cleveland Center
08:04AM 42.0600 -79.6072 30° Northeast 443 510 24,100 -2,040 Descending Cleveland Center
08:05AM 42.1697 -79.5269 28° Northeast 438 504 22,100 -2,040 Descending Cleveland Center
08:06AM 42.2753 -79.4411 31° Northeast 438 504 20,100 -2,040 Descending Cleveland Center
08:07AM 42.3786 -79.3606 30° Northeast 438 504 18,100 -1,740 Descending Cleveland Center
08:08AM 42.4739 -79.2911 28° Northeast 432 497 16,700 -1,020 Descending Cleveland Center
08:09AM 42.5822 -79.2833 North 407 468 16,100 -360 Descending Cleveland Center
08:10AM 42.6989 -79.2922 357° North 401 461 16,000 -60 Descending Cleveland Center
08:11AM 42.8075 -79.3042 355° North 401 461 16,000  Level Cleveland Center
08:12AM 42.9167 -79.3000 North 410 472 16,000 -360 Level Toronto Center
08:13AM 43.0333 -79.3167 354° North 410 472 15,400 -900 Descending Toronto Center
08:14AM 43.1500 -79.3167 360° North 410 472 14,300 -1,140 Descending Toronto Center